sensor_id;sensor_type;location;lat;lon;timestamp;temperature;humidity
5556;DHT22;2801;50.972;7.856;2022-12-13T00:01:46;-7.80;99.90
5556;DHT22;2801;50.972;7.856;2022-12-13T00:04:21;-7.90;99.90
5556;DHT22;2801;50.972;7.856;2022-12-13T00:06:55;-7.80;99.90
5556;DHT22;2801;50.972;7.856;2022-12-13T00:09:22;-8.00;99.90
5556;DHT22;2801;50.972;7.856;2022-12-13T00:11:51;-8.10;99.90
5556;DHT22;2801;50.972;7.856;2022-12-13T00:14:20;-8.10;99.90
5556;DHT22;2801;50.972;7.856;2022-12-13T00:16:48;-8.10;99.90
5556;DHT22;2801;50.972;7.856;2022-12-13T00:19:17;-8.10;99.90
5556;DHT22;2801;50.972;7.856;2022-12-13T00:21:47;-8.10;99.90
5556;DHT22;2801;50.972;7.856;2022-12-13T00:24:16;-8.30;99.90
5556;DHT22;2801;50.972;7.856;2022-12-13T00:26:45;-8.00;99.90
5556;DHT22;2801;50.972;7.856;2022-12-13T00:29:13;-8.20;99.90
5556;DHT22;2801;50.972;7.856;2022-12-13T00:31:40;-8.20;99.90
5556;DHT22;2801;50.972;7.856;2022-12-13T00:34:28;-8.20;99.90
5556;DHT22;2801;50.972;7.856;2022-12-13T00:36:55;-8.30;99.90
5556;DHT22;2801;50.972;7.856;2022-12-13T00:39:24;-8.30;99.90
5556;DHT22;2801;50.972;7.856;2022-12-13T00:41:52;-8.30;99.90
5556;DHT22;2801;50.972;7.856;2022-12-13T00:44:20;-8.30;99.90
5556;DHT22;2801;50.972;7.856;2022-12-13T00:46:49;-8.30;99.90
5556;DHT22;2801;50.972;7.856;2022-12-13T00:49:19;-8.30;99.90
5556;DHT22;2801;50.972;7.856;2022-12-13T00:51:47;-8.40;99.90
5556;DHT22;2801;50.972;7.856;2022-12-13T00:54:16;-8.20;99.90
5556;DHT22;2801;50.972;7.856;2022-12-13T00:56:47;-8.40;99.90
5556;DHT22;2801;50.972;7.856;2022-12-13T00:59:18;-8.40;99.90
5556;DHT22;2801;50.972;7.856;2022-12-13T01:01:47;-8.40;99.90
5556;DHT22;2801;50.972;7.856;2022-12-13T01:04:15;-8.50;99.90
5556;DHT22;2801;50.972;7.856;2022-12-13T01:06:44;-8.40;99.90
5556;DHT22;2801;50.972;7.856;2022-12-13T01:09:20;-8.40;99.90
5556;DHT22;2801;50.972;7.856;2022-12-13T01:11:59;-8.40;99.90
5556;DHT22;2801;50.972;7.856;2022-12-13T01:14:28;-8.40;99.90
5556;DHT22;2801;50.972;7.856;2022-12-13T01:16:56;-8.40;99.90
5556;DHT22;2801;50.972;7.856;2022-12-13T01:19:25;-8.40;99.90
5556;DHT22;2801;50.972;7.856;2022-12-13T01:21:54;-8.40;99.90
5556;DHT22;2801;50.972;7.856;2022-12-13T01:24:26;-8.50;99.90
5556;DHT22;2801;50.972;7.856;2022-12-13T01:26:53;-8.50;99.90
5556;DHT22;2801;50.972;7.856;2022-12-13T01:29:23;-8.50;99.90
5556;DHT22;2801;50.972;7.856;2022-12-13T01:31:52;-8.50;99.90
5556;DHT22;2801;50.972;7.856;2022-12-13T01:34:20;-8.50;99.90
5556;DHT22;2801;50.972;7.856;2022-12-13T01:36:53;-8.50;99.90
5556;DHT22;2801;50.972;7.856;2022-12-13T01:39:24;-8.50;99.90
5556;DHT22;2801;50.972;7.856;2022-12-13T01:41:55;-8.50;99.90
5556;DHT22;2801;50.972;7.856;2022-12-13T01:44:58;-8.50;99.90
5556;DHT22;2801;50.972;7.856;2022-12-13T01:55:57;-8.60;99.90
5556;DHT22;2801;50.972;7.856;2022-12-13T01:58:29;-8.80;99.90
5556;DHT22;2801;50.972;7.856;2022-12-13T02:00:58;-8.60;99.90
5556;DHT22;2801;50.972;7.856;2022-12-13T02:03:26;-8.80;99.90
5556;DHT22;2801;50.972;7.856;2022-12-13T02:08:26;-8.80;99.90
5556;DHT22;2801;50.972;7.856;2022-12-13T02:10:55;-8.90;99.90
5556;DHT22;2801;50.972;7.856;2022-12-13T02:13:24;-8.90;99.90
5556;DHT22;2801;50.972;7.856;2022-12-13T02:22:11;-9.00;99.90
5556;DHT22;2801;50.972;7.856;2022-12-13T02:31:07;-9.00;99.90
5556;DHT22;2801;50.972;7.856;2022-12-13T02:34:16;-9.00;99.90
5556;DHT22;2801;50.972;7.856;2022-12-13T02:37:14;-9.00;99.90
5556;DHT22;2801;50.972;7.856;2022-12-13T02:42:55;-9.00;99.90
5556;DHT22;2801;50.972;7.856;2022-12-13T02:45:47;-9.00;99.90
5556;DHT22;2801;50.972;7.856;2022-12-13T02:48:25;-8.90;99.90
5556;DHT22;2801;50.972;7.856;2022-12-13T02:50:55;-8.90;99.90
5556;DHT22;2801;50.972;7.856;2022-12-13T02:53:24;-9.00;99.90
5556;DHT22;2801;50.972;7.856;2022-12-13T02:55:52;-9.00;99.90
5556;DHT22;2801;50.972;7.856;2022-12-13T02:58:22;-9.00;99.90
5556;DHT22;2801;50.972;7.856;2022-12-13T03:01:18;-9.10;99.90
5556;DHT22;2801;50.972;7.856;2022-12-13T03:07:14;-9.20;99.90
5556;DHT22;2801;50.972;7.856;2022-12-13T03:10:20;-9.30;99.90
5556;DHT22;2801;50.972;7.856;2022-12-13T03:16:17;-9.30;99.90
5556;DHT22;2801;50.972;7.856;2022-12-13T03:18:51;-9.30;99.90
5556;DHT22;2801;50.972;7.856;2022-12-13T03:21:21;-9.30;99.90
5556;DHT22;2801;50.972;7.856;2022-12-13T03:23:48;-9.30;99.90
5556;DHT22;2801;50.972;7.856;2022-12-13T03:26:25;-9.20;99.90
5556;DHT22;2801;50.972;7.856;2022-12-13T03:28:53;-9.20;99.90
5556;DHT22;2801;50.972;7.856;2022-12-13T03:31:21;-9.30;99.90
5556;DHT22;2801;50.972;7.856;2022-12-13T03:33:49;-9.30;99.90
5556;DHT22;2801;50.972;7.856;2022-12-13T03:36:23;-9.40;99.90
5556;DHT22;2801;50.972;7.856;2022-12-13T03:38:53;-9.30;99.90
5556;DHT22;2801;50.972;7.856;2022-12-13T03:41:24;-9.30;99.90
5556;DHT22;2801;50.972;7.856;2022-12-13T03:44:02;-9.30;99.90
5556;DHT22;2801;50.972;7.856;2022-12-13T03:46:31;-9.30;99.90
5556;DHT22;2801;50.972;7.856;2022-12-13T03:48:58;-9.30;99.90
5556;DHT22;2801;50.972;7.856;2022-12-13T03:51:25;-9.30;99.90
5556;DHT22;2801;50.972;7.856;2022-12-13T03:53:52;-9.40;99.90
5556;DHT22;2801;50.972;7.856;2022-12-13T03:56:19;-9.50;99.90
5556;DHT22;2801;50.972;7.856;2022-12-13T03:58:46;-9.60;99.90
5556;DHT22;2801;50.972;7.856;2022-12-13T04:01:15;-9.60;99.90
5556;DHT22;2801;50.972;7.856;2022-12-13T04:03:44;-9.60;99.90
5556;DHT22;2801;50.972;7.856;2022-12-13T04:06:13;-9.60;99.90
5556;DHT22;2801;50.972;7.856;2022-12-13T04:08:50;-9.40;99.90
5556;DHT22;2801;50.972;7.856;2022-12-13T04:11:18;-9.60;99.90
5556;DHT22;2801;50.972;7.856;2022-12-13T04:14:10;-9.40;99.90
5556;DHT22;2801;50.972;7.856;2022-12-13T04:16:47;-9.40;99.90
5556;DHT22;2801;50.972;7.856;2022-12-13T04:19:14;-9.30;99.90
5556;DHT22;2801;50.972;7.856;2022-12-13T04:21:49;-9.20;99.90
5556;DHT22;2801;50.972;7.856;2022-12-13T04:24:16;-9.10;99.90
5556;DHT22;2801;50.972;7.856;2022-12-13T04:26:43;-9.00;99.90
5556;DHT22;2801;50.972;7.856;2022-12-13T04:29:10;-8.90;99.90
5556;DHT22;2801;50.972;7.856;2022-12-13T04:31:37;-8.80;99.90
5556;DHT22;2801;50.972;7.856;2022-12-13T04:34:06;-8.50;99.90
5556;DHT22;2801;50.972;7.856;2022-12-13T04:36:35;-8.60;99.90
5556;DHT22;2801;50.972;7.856;2022-12-13T04:39:04;-8.60;99.90
5556;DHT22;2801;50.972;7.856;2022-12-13T04:41:49;-8.50;99.90
5556;DHT22;2801;50.972;7.856;2022-12-13T04:44:18;-8.40;99.90
5556;DHT22;2801;50.972;7.856;2022-12-13T04:46:54;-8.30;99.90
5556;DHT22;2801;50.972;7.856;2022-12-13T04:49:27;-8.20;99.90
5556;DHT22;2801;50.972;7.856;2022-12-13T04:51:55;-8.20;99.90
5556;DHT22;2801;50.972;7.856;2022-12-13T04:54:28;-8.20;99.90
5556;DHT22;2801;50.972;7.856;2022-12-13T04:57:03;-8.10;99.90
5556;DHT22;2801;50.972;7.856;2022-12-13T04:59:32;-8.20;99.90
5556;DHT22;2801;50.972;7.856;2022-12-13T05:01:59;-8.10;99.90
5556;DHT22;2801;50.972;7.856;2022-12-13T05:04:26;-8.10;99.90
5556;DHT22;2801;50.972;7.856;2022-12-13T05:06:58;-8.10;99.90
5556;DHT22;2801;50.972;7.856;2022-12-13T05:09:25;-8.20;99.90
5556;DHT22;2801;50.972;7.856;2022-12-13T05:11:52;-8.30;99.90
5556;DHT22;2801;50.972;7.856;2022-12-13T05:14:31;-8.50;99.90
5556;DHT22;2801;50.972;7.856;2022-12-13T05:16:59;-8.60;99.90
5556;DHT22;2801;50.972;7.856;2022-12-13T05:19:27;-8.60;99.90
5556;DHT22;2801;50.972;7.856;2022-12-13T05:21:57;-8.70;99.90
5556;DHT22;2801;50.972;7.856;2022-12-13T05:24:29;-8.80;99.90
5556;DHT22;2801;50.972;7.856;2022-12-13T05:26:57;-8.90;99.90
5556;DHT22;2801;50.972;7.856;2022-12-13T05:29:25;-9.00;99.90
5556;DHT22;2801;50.972;7.856;2022-12-13T05:31:53;-9.00;99.90
5556;DHT22;2801;50.972;7.856;2022-12-13T05:34:20;-9.00;99.90
5556;DHT22;2801;50.972;7.856;2022-12-13T05:36:47;-9.10;99.90
5556;DHT22;2801;50.972;7.856;2022-12-13T05:39:14;-9.10;99.90
5556;DHT22;2801;50.972;7.856;2022-12-13T05:41:56;-9.20;99.90
5556;DHT22;2801;50.972;7.856;2022-12-13T05:44:29;-9.20;99.90
5556;DHT22;2801;50.972;7.856;2022-12-13T05:46:57;-9.30;99.90
5556;DHT22;2801;50.972;7.856;2022-12-13T05:49:27;-9.30;99.90
5556;DHT22;2801;50.972;7.856;2022-12-13T05:51:54;-9.30;99.90
5556;DHT22;2801;50.972;7.856;2022-12-13T05:54:21;-9.30;99.90
5556;DHT22;2801;50.972;7.856;2022-12-13T05:56:48;-9.30;99.90
5556;DHT22;2801;50.972;7.856;2022-12-13T05:59:15;-9.30;99.90
5556;DHT22;2801;50.972;7.856;2022-12-13T06:01:42;-9.20;99.90
5556;DHT22;2801;50.972;7.856;2022-12-13T06:04:11;-9.00;99.90
5556;DHT22;2801;50.972;7.856;2022-12-13T06:06:49;-9.10;99.90
5556;DHT22;2801;50.972;7.856;2022-12-13T06:09:17;-9.00;99.90
5556;DHT22;2801;50.972;7.856;2022-12-13T06:11:44;-9.00;99.90
5556;DHT22;2801;50.972;7.856;2022-12-13T06:14:11;-8.90;99.90
5556;DHT22;2801;50.972;7.856;2022-12-13T06:16:49;-8.90;99.90
5556;DHT22;2801;50.972;7.856;2022-12-13T06:19:17;-8.90;99.90
5556;DHT22;2801;50.972;7.856;2022-12-13T06:21:44;-8.80;99.90
5556;DHT22;2801;50.972;7.856;2022-12-13T06:24:19;-8.80;99.90
5556;DHT22;2801;50.972;7.856;2022-12-13T06:26:48;-8.80;99.90
5556;DHT22;2801;50.972;7.856;2022-12-13T06:29:17;-8.70;99.90
5556;DHT22;2801;50.972;7.856;2022-12-13T06:31:55;-8.70;99.90
5556;DHT22;2801;50.972;7.856;2022-12-13T06:34:35;-8.70;99.90
5556;DHT22;2801;50.972;7.856;2022-12-13T06:37:04;-8.60;99.90
5556;DHT22;2801;50.972;7.856;2022-12-13T06:39:34;-8.60;99.90
5556;DHT22;2801;50.972;7.856;2022-12-13T06:42:03;-8.50;99.90
5556;DHT22;2801;50.972;7.856;2022-12-13T06:45:03;-8.40;99.90
5556;DHT22;2801;50.972;7.856;2022-12-13T06:47:30;-8.40;99.90
5556;DHT22;2801;50.972;7.856;2022-12-13T06:49:58;-8.30;99.90
5556;DHT22;2801;50.972;7.856;2022-12-13T06:52:31;-8.20;99.90
5556;DHT22;2801;50.972;7.856;2022-12-13T06:54:58;-8.10;99.90
5556;DHT22;2801;50.972;7.856;2022-12-13T06:57:25;-8.10;99.90
5556;DHT22;2801;50.972;7.856;2022-12-13T06:59:52;-7.90;99.90
5556;DHT22;2801;50.972;7.856;2022-12-13T07:02:19;-7.90;99.90
5556;DHT22;2801;50.972;7.856;2022-12-13T07:04:51;-7.80;99.90
5556;DHT22;2801;50.972;7.856;2022-12-13T07:07:19;-7.70;99.90
5556;DHT22;2801;50.972;7.856;2022-12-13T07:09:46;-7.60;99.90
5556;DHT22;2801;50.972;7.856;2022-12-13T07:12:14;-7.50;99.90
5556;DHT22;2801;50.972;7.856;2022-12-13T07:14:42;-7.50;99.90
5556;DHT22;2801;50.972;7.856;2022-12-13T07:17:09;-7.30;99.90
5556;DHT22;2801;50.972;7.856;2022-12-13T07:19:37;-7.20;99.90
5556;DHT22;2801;50.972;7.856;2022-12-13T07:22:06;-7.10;99.90
5556;DHT22;2801;50.972;7.856;2022-12-13T07:24:42;-7.10;99.90
5556;DHT22;2801;50.972;7.856;2022-12-13T07:27:09;-7.00;99.90
5556;DHT22;2801;50.972;7.856;2022-12-13T07:29:36;-7.00;99.90
5556;DHT22;2801;50.972;7.856;2022-12-13T07:32:10;-6.90;99.90
5556;DHT22;2801;50.972;7.856;2022-12-13T07:34:39;-6.90;99.90
5556;DHT22;2801;50.972;7.856;2022-12-13T07:37:08;-6.90;99.90
5556;DHT22;2801;50.972;7.856;2022-12-13T07:39:55;-6.80;99.90
5556;DHT22;2801;50.972;7.856;2022-12-13T07:42:29;-6.60;99.90
5556;DHT22;2801;50.972;7.856;2022-12-13T07:44:56;-6.50;99.90
5556;DHT22;2801;50.972;7.856;2022-12-13T07:47:28;-6.40;99.90
5556;DHT22;2801;50.972;7.856;2022-12-13T07:49:57;-6.40;99.90
5556;DHT22;2801;50.972;7.856;2022-12-13T07:52:24;-6.30;99.90
5556;DHT22;2801;50.972;7.856;2022-12-13T07:54:50;-6.20;99.90
5556;DHT22;2801;50.972;7.856;2022-12-13T07:57:17;-6.10;99.90
5556;DHT22;2801;50.972;7.856;2022-12-13T07:59:44;-6.10;99.90
5556;DHT22;2801;50.972;7.856;2022-12-13T08:02:12;-6.00;99.90
5556;DHT22;2801;50.972;7.856;2022-12-13T08:04:41;-5.90;99.90
5556;DHT22;2801;50.972;7.856;2022-12-13T08:07:10;-5.80;99.90
5556;DHT22;2801;50.972;7.856;2022-12-13T08:09:37;-5.80;99.90
5556;DHT22;2801;50.972;7.856;2022-12-13T08:12:04;-5.80;99.90
5556;DHT22;2801;50.972;7.856;2022-12-13T08:14:31;-5.70;99.90
5556;DHT22;2801;50.972;7.856;2022-12-13T08:16:58;-5.70;99.90
5556;DHT22;2801;50.972;7.856;2022-12-13T08:19:26;-5.60;99.90
5556;DHT22;2801;50.972;7.856;2022-12-13T08:21:53;-5.60;99.90
5556;DHT22;2801;50.972;7.856;2022-12-13T08:24:26;-5.50;99.90
5556;DHT22;2801;50.972;7.856;2022-12-13T08:26:56;-5.50;99.90
5556;DHT22;2801;50.972;7.856;2022-12-13T08:29:28;-5.40;99.90
5556;DHT22;2801;50.972;7.856;2022-12-13T08:32:08;-5.40;99.90
5556;DHT22;2801;50.972;7.856;2022-12-13T08:34:37;-5.30;99.90
5556;DHT22;2801;50.972;7.856;2022-12-13T08:37:05;-5.30;99.90
5556;DHT22;2801;50.972;7.856;2022-12-13T08:39:36;-5.30;99.90
5556;DHT22;2801;50.972;7.856;2022-12-13T08:42:13;-5.20;99.90
5556;DHT22;2801;50.972;7.856;2022-12-13T08:44:49;-5.10;99.90
5556;DHT22;2801;50.972;7.856;2022-12-13T08:47:23;-5.10;99.90
5556;DHT22;2801;50.972;7.856;2022-12-13T08:49:57;-5.20;99.90
5556;DHT22;2801;50.972;7.856;2022-12-13T08:52:40;-5.30;99.90
5556;DHT22;2801;50.972;7.856;2022-12-13T08:55:09;-5.30;99.90
5556;DHT22;2801;50.972;7.856;2022-12-13T08:57:41;-5.60;99.90
5556;DHT22;2801;50.972;7.856;2022-12-13T09:00:13;-5.70;99.90
5556;DHT22;2801;50.972;7.856;2022-12-13T09:02:42;-5.70;99.90
5556;DHT22;2801;50.972;7.856;2022-12-13T09:05:10;-5.80;99.90
5556;DHT22;2801;50.972;7.856;2022-12-13T09:07:59;-5.80;99.90
5556;DHT22;2801;50.972;7.856;2022-12-13T09:11:00;-5.90;99.90
5556;DHT22;2801;50.972;7.856;2022-12-13T09:13:47;-5.80;99.90
5556;DHT22;2801;50.972;7.856;2022-12-13T09:16:19;-5.80;99.90
5556;DHT22;2801;50.972;7.856;2022-12-13T09:18:51;-5.80;99.90
5556;DHT22;2801;50.972;7.856;2022-12-13T09:21:21;-5.80;99.90
5556;DHT22;2801;50.972;7.856;2022-12-13T09:23:58;-5.70;99.90
5556;DHT22;2801;50.972;7.856;2022-12-13T09:26:27;-5.40;99.90
5556;DHT22;2801;50.972;7.856;2022-12-13T09:29:09;-5.00;99.90
5556;DHT22;2801;50.972;7.856;2022-12-13T09:31:37;-4.40;99.90
5556;DHT22;2801;50.972;7.856;2022-12-13T09:34:07;-4.10;99.90
5556;DHT22;2801;50.972;7.856;2022-12-13T09:36:35;-4.00;99.90
5556;DHT22;2801;50.972;7.856;2022-12-13T09:39:06;-4.10;99.90
5556;DHT22;2801;50.972;7.856;2022-12-13T09:41:41;-4.30;99.90
5556;DHT22;2801;50.972;7.856;2022-12-13T09:44:19;-4.50;99.90
5556;DHT22;2801;50.972;7.856;2022-12-13T09:47:00;-4.80;99.90
5556;DHT22;2801;50.972;7.856;2022-12-13T09:49:41;-4.90;99.90
5556;DHT22;2801;50.972;7.856;2022-12-13T09:52:21;-4.90;99.90
5556;DHT22;2801;50.972;7.856;2022-12-13T09:54:53;-5.00;99.90
5556;DHT22;2801;50.972;7.856;2022-12-13T09:57:28;-5.00;99.90
5556;DHT22;2801;50.972;7.856;2022-12-13T10:00:03;-5.00;99.90
5556;DHT22;2801;50.972;7.856;2022-12-13T10:02:46;-5.00;99.90
5556;DHT22;2801;50.972;7.856;2022-12-13T10:08:15;-5.00;99.90
5556;DHT22;2801;50.972;7.856;2022-12-13T10:10:50;-5.00;99.90
5556;DHT22;2801;50.972;7.856;2022-12-13T10:15:53;-5.00;99.90
5556;DHT22;2801;50.972;7.856;2022-12-13T10:18:36;-4.90;99.90
5556;DHT22;2801;50.972;7.856;2022-12-13T10:21:09;-4.90;99.90
5556;DHT22;2801;50.972;7.856;2022-12-13T10:23:40;-4.80;99.90
5556;DHT22;2801;50.972;7.856;2022-12-13T10:26:36;-4.70;99.90
5556;DHT22;2801;50.972;7.856;2022-12-13T10:29:08;-4.70;99.90
5556;DHT22;2801;50.972;7.856;2022-12-13T10:31:44;-4.70;99.90
5556;DHT22;2801;50.972;7.856;2022-12-13T10:36:55;-4.60;99.90
5556;DHT22;2801;50.972;7.856;2022-12-13T10:39:38;-4.50;99.90
5556;DHT22;2801;50.972;7.856;2022-12-13T10:42:15;-4.40;99.90
5556;DHT22;2801;50.972;7.856;2022-12-13T10:45:14;-4.30;99.90
5556;DHT22;2801;50.972;7.856;2022-12-13T10:47:49;-4.20;99.90
5556;DHT22;2801;50.972;7.856;2022-12-13T10:50:26;-4.20;99.90
5556;DHT22;2801;50.972;7.856;2022-12-13T10:52:57;-4.10;99.90
5556;DHT22;2801;50.972;7.856;2022-12-13T10:55:35;-4.00;99.90
5556;DHT22;2801;50.972;7.856;2022-12-13T10:58:07;-3.90;99.90
5556;DHT22;2801;50.972;7.856;2022-12-13T11:00:47;-3.80;99.90
5556;DHT22;2801;50.972;7.856;2022-12-13T11:03:32;-3.80;99.90
5556;DHT22;2801;50.972;7.856;2022-12-13T11:06:12;-3.70;99.90
5556;DHT22;2801;50.972;7.856;2022-12-13T11:08:58;-3.60;99.90
5556;DHT22;2801;50.972;7.856;2022-12-13T11:11:29;-3.50;99.90
5556;DHT22;2801;50.972;7.856;2022-12-13T11:14:17;-3.30;99.90
5556;DHT22;2801;50.972;7.856;2022-12-13T11:17:04;-3.20;99.90
5556;DHT22;2801;50.972;7.856;2022-12-13T11:19:36;-3.10;99.90
5556;DHT22;2801;50.972;7.856;2022-12-13T11:22:19;-3.10;99.90
5556;DHT22;2801;50.972;7.856;2022-12-13T11:25:02;-3.00;99.90
5556;DHT22;2801;50.972;7.856;2022-12-13T11:39:59;-2.60;99.90
5556;DHT22;2801;50.972;7.856;2022-12-13T11:42:39;-2.50;99.90
5556;DHT22;2801;50.972;7.856;2022-12-13T11:50:42;-2.40;99.90
5556;DHT22;2801;50.972;7.856;2022-12-13T12:04:43;-2.10;99.90
5556;DHT22;2801;50.972;7.856;2022-12-13T12:10:42;-2.00;99.90
5556;DHT22;2801;50.972;7.856;2022-12-13T12:13:23;-2.00;99.90
5556;DHT22;2801;50.972;7.856;2022-12-13T12:18:33;-2.10;99.90
5556;DHT22;2801;50.972;7.856;2022-12-13T12:21:09;-2.10;99.90
5556;DHT22;2801;50.972;7.856;2022-12-13T12:26:27;-2.10;99.90
5556;DHT22;2801;50.972;7.856;2022-12-13T12:29:38;-2.00;99.90
5556;DHT22;2801;50.972;7.856;2022-12-13T12:50:25;-1.80;99.90
5556;DHT22;2801;50.972;7.856;2022-12-13T12:53:45;-1.80;99.90
5556;DHT22;2801;50.972;7.856;2022-12-13T13:05:37;-1.50;99.90
5556;DHT22;2801;50.972;7.856;2022-12-13T13:11:28;-1.50;99.90
5556;DHT22;2801;50.972;7.856;2022-12-13T13:14:39;-1.40;99.90
5556;DHT22;2801;50.972;7.856;2022-12-13T13:20:19;-1.40;99.90
5556;DHT22;2801;50.972;7.856;2022-12-13T13:22:52;-1.40;99.90
5556;DHT22;2801;50.972;7.856;2022-12-13T13:25:43;-1.40;99.90
5556;DHT22;2801;50.972;7.856;2022-12-13T13:28:39;-1.40;99.90
5556;DHT22;2801;50.972;7.856;2022-12-13T13:31:07;-1.40;99.90
5556;DHT22;2801;50.972;7.856;2022-12-13T13:39:18;-1.50;99.90
5556;DHT22;2801;50.972;7.856;2022-12-13T13:43:16;-1.50;99.90
5556;DHT22;2801;50.972;7.856;2022-12-13T13:45:29;-1.60;99.90
5556;DHT22;2801;50.972;7.856;2022-12-13T13:55:05;-1.70;99.90
5556;DHT22;2801;50.972;7.856;2022-12-13T14:04:43;-1.70;99.90
5556;DHT22;2801;50.972;7.856;2022-12-13T14:16:54;-1.70;99.90
5556;DHT22;2801;50.972;7.856;2022-12-13T14:29:17;-1.70;99.90
5556;DHT22;2801;50.972;7.856;2022-12-13T14:35:31;-1.80;99.90
5556;DHT22;2801;50.972;7.856;2022-12-13T14:38:03;-1.90;99.90
5556;DHT22;2801;50.972;7.856;2022-12-13T14:40:33;-1.90;99.90
5556;DHT22;2801;50.972;7.856;2022-12-13T14:43:01;-2.00;99.90
5556;DHT22;2801;50.972;7.856;2022-12-13T14:45:34;-2.00;99.90
5556;DHT22;2801;50.972;7.856;2022-12-13T14:48:20;-2.00;99.90
5556;DHT22;2801;50.972;7.856;2022-12-13T14:50:55;-2.00;99.90
5556;DHT22;2801;50.972;7.856;2022-12-13T14:53:26;-2.10;99.90
5556;DHT22;2801;50.972;7.856;2022-12-13T14:56:10;-2.10;99.90
5556;DHT22;2801;50.972;7.856;2022-12-13T14:59:00;-2.20;99.90
5556;DHT22;2801;50.972;7.856;2022-12-13T15:01:34;-2.30;99.90
5556;DHT22;2801;50.972;7.856;2022-12-13T15:09:43;-2.40;99.90
5556;DHT22;2801;50.972;7.856;2022-12-13T15:12:16;-2.50;99.90
5556;DHT22;2801;50.972;7.856;2022-12-13T15:15:02;-2.60;99.90
5556;DHT22;2801;50.972;7.856;2022-12-13T15:20:21;-2.70;99.90
5556;DHT22;2801;50.972;7.856;2022-12-13T15:22:58;-2.80;99.90
5556;DHT22;2801;50.972;7.856;2022-12-13T15:25:28;-2.80;99.90
5556;DHT22;2801;50.972;7.856;2022-12-13T15:27:56;-2.80;99.90
5556;DHT22;2801;50.972;7.856;2022-12-13T15:30:23;-2.90;99.90
5556;DHT22;2801;50.972;7.856;2022-12-13T15:33:03;-2.90;99.90
5556;DHT22;2801;50.972;7.856;2022-12-13T15:38:59;-3.00;99.90
5556;DHT22;2801;50.972;7.856;2022-12-13T15:41:29;-3.10;99.90
5556;DHT22;2801;50.972;7.856;2022-12-13T15:44:05;-3.10;99.90
5556;DHT22;2801;50.972;7.856;2022-12-13T15:46:44;-3.20;99.90
5556;DHT22;2801;50.972;7.856;2022-12-13T15:49:37;-3.20;99.90
5556;DHT22;2801;50.972;7.856;2022-12-13T15:57:57;-3.30;99.90
5556;DHT22;2801;50.972;7.856;2022-12-13T16:00:30;-3.30;99.90
5556;DHT22;2801;50.972;7.856;2022-12-13T16:03:05;-3.30;99.90
5556;DHT22;2801;50.972;7.856;2022-12-13T16:05:47;-3.30;99.90
5556;DHT22;2801;50.972;7.856;2022-12-13T16:08:32;-3.40;99.90
5556;DHT22;2801;50.972;7.856;2022-12-13T16:11:05;-3.40;99.90
5556;DHT22;2801;50.972;7.856;2022-12-13T16:13:35;-3.50;99.90
5556;DHT22;2801;50.972;7.856;2022-12-13T16:16:24;-3.50;99.90
5556;DHT22;2801;50.972;7.856;2022-12-13T16:18:56;-3.50;99.90
5556;DHT22;2801;50.972;7.856;2022-12-13T16:21:26;-3.50;99.90
5556;DHT22;2801;50.972;7.856;2022-12-13T16:23:53;-3.50;99.90
5556;DHT22;2801;50.972;7.856;2022-12-13T16:26:22;-3.50;99.90
5556;DHT22;2801;50.972;7.856;2022-12-13T16:28:52;-3.60;99.90
5556;DHT22;2801;50.972;7.856;2022-12-13T16:31:22;-3.50;99.90
5556;DHT22;2801;50.972;7.856;2022-12-13T16:33:52;-3.50;99.90
5556;DHT22;2801;50.972;7.856;2022-12-13T16:36:19;-3.40;99.90
5556;DHT22;2801;50.972;7.856;2022-12-13T16:38:46;-3.50;99.90
5556;DHT22;2801;50.972;7.856;2022-12-13T16:41:13;-3.50;99.90
5556;DHT22;2801;50.972;7.856;2022-12-13T16:43:59;-3.60;99.90
5556;DHT22;2801;50.972;7.856;2022-12-13T16:46:28;-3.60;99.90
5556;DHT22;2801;50.972;7.856;2022-12-13T16:49:29;-3.60;99.90
5556;DHT22;2801;50.972;7.856;2022-12-13T16:51:56;-3.60;99.90
5556;DHT22;2801;50.972;7.856;2022-12-13T16:54:24;-3.70;99.90
5556;DHT22;2801;50.972;7.856;2022-12-13T16:56:52;-3.60;99.90
5556;DHT22;2801;50.972;7.856;2022-12-13T16:59:22;-3.60;99.90
5556;DHT22;2801;50.972;7.856;2022-12-13T17:01:54;-3.70;99.90
5556;DHT22;2801;50.972;7.856;2022-12-13T17:04:23;-3.60;99.90
5556;DHT22;2801;50.972;7.856;2022-12-13T17:06:54;-3.60;99.90
5556;DHT22;2801;50.972;7.856;2022-12-13T17:09:25;-3.70;99.90
5556;DHT22;2801;50.972;7.856;2022-12-13T17:11:54;-3.60;99.90
5556;DHT22;2801;50.972;7.856;2022-12-13T17:14:21;-3.60;99.90
5556;DHT22;2801;50.972;7.856;2022-12-13T17:16:48;-3.60;99.90
5556;DHT22;2801;50.972;7.856;2022-12-13T17:19:17;-3.60;99.90
5556;DHT22;2801;50.972;7.856;2022-12-13T17:21:47;-3.50;99.90
5556;DHT22;2801;50.972;7.856;2022-12-13T17:24:15;-3.50;99.90
5556;DHT22;2801;50.972;7.856;2022-12-13T17:26:43;-3.30;99.90
5556;DHT22;2801;50.972;7.856;2022-12-13T17:29:21;-3.30;99.90
5556;DHT22;2801;50.972;7.856;2022-12-13T17:31:50;-3.40;99.90
5556;DHT22;2801;50.972;7.856;2022-12-13T17:34:17;-3.40;99.90
5556;DHT22;2801;50.972;7.856;2022-12-13T17:36:44;-3.40;99.90
5556;DHT22;2801;50.972;7.856;2022-12-13T17:39:11;-3.40;99.90
5556;DHT22;2801;50.972;7.856;2022-12-13T17:41:39;-3.40;99.90
5556;DHT22;2801;50.972;7.856;2022-12-13T17:44:07;-3.40;99.90
5556;DHT22;2801;50.972;7.856;2022-12-13T17:46:37;-3.40;99.90
5556;DHT22;2801;50.972;7.856;2022-12-13T17:49:19;-3.40;99.90
5556;DHT22;2801;50.972;7.856;2022-12-13T17:51:46;-3.40;99.90
5556;DHT22;2801;50.972;7.856;2022-12-13T17:54:17;-3.40;99.90
5556;DHT22;2801;50.972;7.856;2022-12-13T17:56:45;-3.40;99.90
5556;DHT22;2801;50.972;7.856;2022-12-13T17:59:13;-3.40;99.90
5556;DHT22;2801;50.972;7.856;2022-12-13T18:01:42;-3.40;99.90
5556;DHT22;2801;50.972;7.856;2022-12-13T18:04:11;-3.40;99.90
5556;DHT22;2801;50.972;7.856;2022-12-13T18:06:43;-3.50;99.90
5556;DHT22;2801;50.972;7.856;2022-12-13T18:09:10;-3.60;99.90
5556;DHT22;2801;50.972;7.856;2022-12-13T18:11:41;-3.60;99.90
5556;DHT22;2801;50.972;7.856;2022-12-13T18:14:08;-3.70;99.90
5556;DHT22;2801;50.972;7.856;2022-12-13T18:16:35;-3.70;99.90
5556;DHT22;2801;50.972;7.856;2022-12-13T18:19:10;-3.80;99.90
5556;DHT22;2801;50.972;7.856;2022-12-13T18:21:38;-3.80;99.90
5556;DHT22;2801;50.972;7.856;2022-12-13T18:24:06;-3.90;99.90
5556;DHT22;2801;50.972;7.856;2022-12-13T18:26:36;-3.90;99.90
5556;DHT22;2801;50.972;7.856;2022-12-13T18:29:04;-3.90;99.90
5556;DHT22;2801;50.972;7.856;2022-12-13T18:31:35;-3.90;99.90
5556;DHT22;2801;50.972;7.856;2022-12-13T18:34:04;-4.00;99.90
5556;DHT22;2801;50.972;7.856;2022-12-13T18:36:35;-4.00;99.90
5556;DHT22;2801;50.972;7.856;2022-12-13T18:39:03;-4.00;99.90
5556;DHT22;2801;50.972;7.856;2022-12-13T18:41:31;-4.10;99.90
5556;DHT22;2801;50.972;7.856;2022-12-13T18:44:04;-4.20;99.90
5556;DHT22;2801;50.972;7.856;2022-12-13T18:46:37;-4.20;99.90
5556;DHT22;2801;50.972;7.856;2022-12-13T18:49:09;-4.20;99.90
5556;DHT22;2801;50.972;7.856;2022-12-13T18:51:36;-4.20;99.90
5556;DHT22;2801;50.972;7.856;2022-12-13T18:54:03;-4.10;99.90
5556;DHT22;2801;50.972;7.856;2022-12-13T18:56:30;-4.20;99.90
5556;DHT22;2801;50.972;7.856;2022-12-13T18:58:57;-4.10;99.90
5556;DHT22;2801;50.972;7.856;2022-12-13T19:01:25;-4.10;99.90
5556;DHT22;2801;50.972;7.856;2022-12-13T19:03:53;-4.10;99.90
5556;DHT22;2801;50.972;7.856;2022-12-13T19:06:22;-4.10;99.90
5556;DHT22;2801;50.972;7.856;2022-12-13T19:08:53;-4.10;99.90
5556;DHT22;2801;50.972;7.856;2022-12-13T19:11:23;-4.10;99.90
5556;DHT22;2801;50.972;7.856;2022-12-13T19:13:53;-4.10;99.90
5556;DHT22;2801;50.972;7.856;2022-12-13T19:16:21;-4.10;99.90
5556;DHT22;2801;50.972;7.856;2022-12-13T19:18:49;-4.10;99.90
5556;DHT22;2801;50.972;7.856;2022-12-13T19:21:18;-4.10;99.90
5556;DHT22;2801;50.972;7.856;2022-12-13T19:23:46;-4.10;99.90
5556;DHT22;2801;50.972;7.856;2022-12-13T19:26:22;-4.20;99.90
5556;DHT22;2801;50.972;7.856;2022-12-13T19:28:50;-4.20;99.90
5556;DHT22;2801;50.972;7.856;2022-12-13T19:31:17;-4.20;99.90
5556;DHT22;2801;50.972;7.856;2022-12-13T19:33:44;-4.20;99.90